| time (UTC) | temp F | wind direction | speed MPH | gust MPH | rain 1hr in | rain 24hr in | rain mn in | humidity % | barometer mb |
| 20260506154556 | 50 | 153 | 1.0 | 2.0 | 0.00 | 0.07 | 0.00 | 80 | 1017.4 |
| 20260506153053 | 49 | 153 | 1.0 | 3.0 | 0.00 | 0.07 | 0.00 | 82 | 1017.5 |
| 20260506151553 | 49 | 153 | 0.0 | 2.0 | 0.00 | 0.07 | 0.00 | 81 | 1017.6 |
| 20260506150056 | 48 | 155 | 2.0 | 3.0 | 0.00 | 0.11 | 0.00 | 82 | 1017.6 |
| 20260506144541 | 48 | 150 | 1.0 | 2.0 | 0.00 | 0.11 | 0.00 | 85 | 1017.5 |
| 20260506143039 | 48 | 150 | 1.0 | 2.0 | 0.00 | 0.11 | 0.00 | 83 | 1017.4 |
| 20260506141541 | 48 | 150 | 1.0 | 2.0 | 0.00 | 0.11 | 0.00 | 82 | 1017.4 |
| 20260506140028 | 45 | 142 | 0.0 | 1.0 | 0.00 | 0.14 | 0.00 | 88 | 1017.3 |
| 20260506134523 | 41 | 141 | 0.0 | 2.0 | 0.00 | 0.14 | 0.00 | 95 | 1017.3 |
| 20260506133020 | 40 | 141 | 0.0 | 0.0 | 0.00 | 0.14 | 0.00 | 94 | 1017.1 |
| 20260506131518 | 40 | 141 | 0.0 | 1.0 | 0.00 | 0.14 | 0.00 | 93 | 1016.8 |
| 20260506130016 | 40 | 141 | 0.0 | 0.0 | 0.00 | 0.17 | 0.00 | 93 | 1016.6 |
| 20260506124512 | 41 | 141 | 0.0 | 1.0 | 0.00 | 0.17 | 0.00 | 93 | 1016.4 |
| 20260506123014 | 40 | 141 | 0.0 | 0.0 | 0.00 | 0.17 | 0.00 | 93 | 1016.1 |
| 20260506121513 | 40 | 141 | 0.0 | 1.0 | 0.00 | 0.17 | 0.00 | 94 | 1015.9 |
| 20260506120016 | 40 | 141 | 0.0 | 2.0 | 0.00 | 0.19 | 0.00 | 94 | 1015.9 |
| 20260506114506 | 39 | 141 | 0.0 | 0.0 | 0.00 | 0.19 | 0.00 | 94 | 1015.8 |
| 20260506113004 | 40 | 141 | 0.0 | 0.0 | 0.00 | 0.19 | 0.00 | 94 | 1015.7 |
| 20260506111502 | 40 | 141 | 0.0 | 0.0 | 0.00 | 0.19 | 0.00 | 93 | 1015.5 |
| 20260506110114 | 40 | 141 | 0.0 | 0.0 | 0.00 | 0.19 | 0.00 | 93 | 1015.5 |
| 20260506104614 | 40 | 141 | 0.0 | 2.0 | 0.00 | 0.24 | 0.00 | 93 | 1015.3 |
| 20260506103057 | 40 | 141 | 0.0 | 0.0 | 0.00 | 0.24 | 0.00 | 93 | 1015.2 |
| 20260506101557 | 40 | 141 | 0.0 | 1.0 | 0.00 | 0.24 | 0.00 | 93 | 1015.1 |
| 20260506100110 | 40 | 141 | 0.0 | 0.0 | 0.00 | 0.33 | 0.00 | 93 | 1015.2 |
| 20260506094601 | 40 | 141 | 0.0 | 0.0 | 0.00 | 0.33 | 0.00 | 93 | 1015.1 |
| 20260506093053 | 40 | 141 | 0.0 | 0.0 | 0.00 | 0.33 | 0.00 | 92 | 1014.9 |
| 20260506091551 | 41 | 141 | 0.0 | 0.0 | 0.00 | 0.33 | 0.00 | 92 | 1014.9 |
| 20260506090048 | 41 | 141 | 0.0 | 0.0 | 0.00 | 0.39 | 0.00 | 92 | 1014.7 |
| 20260506084615 | 41 | 141 | 0.0 | 0.0 | 0.00 | 0.39 | 0.00 | 92 | 1014.6 |
| 20260506083046 | 41 | 141 | 0.0 | 0.0 | 0.00 | 0.39 | 0.00 | 92 | 1014.5 |
| 20260506081552 | 42 | 141 | 0.0 | 2.0 | 0.00 | 0.39 | 0.00 | 91 | 1014.4 |
| 20260506073039 | 42 | 141 | 0.0 | 0.0 | 0.00 | 0.45 | 0.00 | 90 | 1014.0 |
| 20260506071537 | 43 | 141 | 0.0 | 0.0 | 0.00 | 0.45 | 0.00 | 90 | 1013.9 |
| 20260506061530 | 44 | 141 | 0.0 | 0.0 | 0.00 | 0.49 | 0.45 | 88 | 1013.3 |
| 20260506044521 | 45 | 141 | 0.0 | 0.0 | 0.00 | 0.56 | 0.45 | 86 | 1012.8 |
| 20260506043019 | 45 | 141 | 0.0 | 1.0 | 0.00 | 0.56 | 0.45 | 87 | 1012.6 |
| 20260506041520 | 46 | 141 | 0.0 | 0.0 | 0.00 | 0.56 | 0.45 | 86 | 1012.6 |
| 20260506040017 | 46 | 141 | 0.0 | 0.0 | 0.00 | 0.59 | 0.45 | 85 | 1012.6 |
| 20260506034516 | 46 | 141 | 0.0 | 2.0 | 0.00 | 0.59 | 0.45 | 84 | 1012.5 |
| 20260506033014 | 47 | 141 | 0.0 | 2.0 | 0.00 | 0.59 | 0.45 | 83 | 1012.4 |
| 20260506031512 | 47 | 141 | 0.0 | 1.0 | 0.00 | 0.59 | 0.45 | 82 | 1011.9 |
| 20260506030012 | 48 | 141 | 0.0 | 2.0 | 0.00 | 0.65 | 0.45 | 81 | 1011.5 |
| 20260506024511 | 49 | 141 | 0.0 | 3.0 | 0.00 | 0.65 | 0.45 | 79 | 1011.1 |
| 20260506023011 | 50 | 141 | 0.0 | 3.0 | 0.00 | 0.65 | 0.45 | 79 | 1011.0 |
| 20260506021510 | 50 | 140 | 1.0 | 4.0 | 0.00 | 0.65 | 0.45 | 79 | 1011.0 |
| 20260506020009 | 50 | 196 | 1.0 | 3.0 | 0.00 | 0.69 | 0.45 | 78 | 1010.8 |
| 20260506014509 | 49 | 196 | 1.0 | 2.0 | 0.00 | 0.69 | 0.45 | 76 | 1010.7 |
| 20260506013010 | 49 | 196 | 0.0 | 2.0 | 0.00 | 0.69 | 0.45 | 76 | 1010.6 |
| 20260506011508 | 50 | 196 | 0.0 | 0.0 | 0.00 | 0.69 | 0.45 | 75 | 1010.7 |
| 20260506010010 | 51 | 196 | 0.0 | 0.0 | 0.00 | 0.69 | 0.45 | 73 | 1010.5 |
| 20260506004511 | 54 | 196 | 0.0 | 3.0 | 0.00 | 0.69 | 0.45 | 69 | 1010.6 |
| 20260506003007 | 56 | 196 | 0.0 | 1.0 | 0.00 | 0.69 | 0.45 | 67 | 1010.8 |
| 20260506001505 | 56 | 197 | 0.0 | 2.0 | 0.00 | 0.69 | 0.45 | 62 | 1011.0 |
| 20260506000005 | 55 | 214 | 2.0 | 4.0 | 0.00 | 0.69 | 0.45 | 62 | 1010.9 |
| 20260505234504 | 55 | 199 | 1.0 | 4.0 | 0.00 | 0.69 | 0.45 | 61 | 1010.9 |
| 20260505233002 | 55 | 259 | 3.0 | 6.0 | 0.00 | 0.69 | 0.45 | 60 | 1011.0 |
| 20260505231502 | 55 | 251 | 2.0 | 8.0 | 0.00 | 0.69 | 0.45 | 62 | 1011.1 |
| 20260505230001 | 54 | 232 | 2.0 | 7.0 | 0.00 | 0.69 | 0.45 | 66 | 1011.2 |
| 20260505224502 | 55 | 250 | 2.0 | 5.0 | 0.00 | 0.69 | 0.45 | 62 | 1011.2 |
| 20260505223100 | 55 | 254 | 3.0 | 7.0 | 0.00 | 0.69 | 0.45 | 62 | 1011.4 |
| 20260505221603 | 54 | 254 | 4.0 | 9.0 | 0.00 | 0.69 | 0.45 | 66 | 1011.5 |
| 20260505214600 | 54 | 256 | 5.0 | 9.0 | 0.00 | 0.69 | 0.45 | 63 | 1012.0 |
| 20260505213058 | 53 | 292 | 5.0 | 9.0 | 0.00 | 0.69 | 0.45 | 66 | 1012.0 |
| 20260505211556 | 53 | 260 | 3.0 | 8.0 | 0.00 | 0.69 | 0.45 | 68 | 1012.0 |
| 20260505210055 | 53 | 248 | 4.0 | 8.0 | 0.00 | 0.72 | 0.45 | 69 | 1011.9 |
| 20260505204555 | 54 | 250 | 4.0 | 8.0 | 0.00 | 0.72 | 0.45 | 66 | 1011.9 |
| 20260505203117 | 57 | 269 | 2.0 | 7.0 | 0.00 | 0.72 | 0.45 | 65 | 1011.9 |
| 20260505201600 | 55 | 279 | 1.0 | 4.0 | 0.00 | 0.72 | 0.45 | 70 | 1011.9 |
| 20260505200052 | 50 | 269 | 2.0 | 9.0 | 0.01 | 0.72 | 0.45 | 77 | 1011.9 |
| 20260505194543 | 49 | 290 | 7.0 | 10.0 | 0.01 | 0.72 | 0.45 | 77 | 1011.9 |
| 20260505193038 | 48 | 279 | 5.0 | 8.0 | 0.01 | 0.72 | 0.45 | 80 | 1011.8 |
| 20260505191536 | 48 | 288 | 4.0 | 9.0 | 0.01 | 0.72 | 0.45 | 83 | 1011.8 |
| 20260505190035 | 47 | 286 | 5.0 | 9.0 | 0.00 | 0.72 | 0.44 | 84 | 1011.9 |
| 20260505184535 | 46 | 286 | 6.0 | 8.0 | 0.00 | 0.72 | 0.44 | 86 | 1011.6 |
| 20260505183028 | 45 | 295 | 4.0 | 6.0 | 0.00 | 0.72 | 0.44 | 89 | 1011.7 |
| 20260505181530 | 44 | 282 | 3.0 | 9.0 | 0.00 | 0.72 | 0.44 | 87 | 1011.8 |
| 20260505180023 | 45 | 285 | 5.0 | 9.0 | 0.00 | 0.77 | 0.44 | 87 | 1011.5 |
| 20260505174528 | 44 | 121 | 0.0 | 2.0 | 0.00 | 0.77 | 0.44 | 86 | 1011.3 |
| 20260505173016 | 42 | 169 | 0.0 | 2.0 | 0.00 | 0.77 | 0.44 | 91 | 1011.1 |
| 20260505171514 | 41 | 169 | 0.0 | 2.0 | 0.01 | 0.77 | 0.44 | 90 | 1010.9 |
| 20260505170018 | 41 | 169 | 0.0 | 2.0 | 0.02 | 0.77 | 0.44 | 89 | 1010.8 |
| 20260505164510 | 43 | 96 | 0.0 | 2.0 | 0.03 | 0.77 | 0.44 | 86 | 1010.6 |
| 20260505163012 | 44 | 94 | 0.0 | 2.0 | 0.04 | 0.77 | 0.44 | 92 | 1010.5 |
| 20260505161505 | 43 | 90 | 0.0 | 2.0 | 0.04 | 0.76 | 0.43 | 92 | 1010.4 |